Time;durP1;ratioP1;P1;durP2;ratioP2;P2;SDS_P1;SDS_P2;PMS_P1;PMS_P2;Temp;Humidity;BMP_temperature;BMP_pressure;BME280_temperature;BME280_humidity;BME280_pressure;Samples;Min_cycle;Max_cycle;Signal;HPM_P1;HPM_P2
2021/07/07 00:01:28;;;;;;;;;;;;;;;20.44;65.78;97925.99;1675225;82;24809;-87
2021/07/07 00:03:54;;;;;;;;;;;;;;;20.40;65.87;97926.02;1642726;85;20978;-87
2021/07/07 00:06:20;;;;;;;;;;;;;;;20.39;65.97;97923.06;1695805;84;26213;-87
2021/07/07 00:08:48;;;;;;;;;;;;;;;20.42;66.08;97931.98;1655203;85;24439;-87
2021/07/07 00:11:14;;;;;;;;;;;;;;;20.47;66.17;97928.78;1660418;85;20228;-87
2021/07/07 00:13:40;;;;;;;;;;;;;;;20.51;66.23;97927.40;1681289;84;20244;-87
2021/07/07 00:16:06;;;;;;;;;;;;;;;20.56;66.25;97926.88;1677350;83;22026;-88
2021/07/07 00:18:36;;;;;;;;;;;;;;;20.52;66.24;97926.90;1715559;81;22863;-87
2021/07/07 00:21:03;;;;;;;;;;;;;;;20.54;66.30;97931.04;1689005;84;24486;-87
2021/07/07 00:23:30;;;;;;;;;;;;;;;20.52;66.30;97930.88;1680142;84;20299;-87
2021/07/07 00:25:56;;;;;;;;;;;;;;;20.46;66.36;97931.94;1683762;84;24831;-87
2021/07/07 00:28:23;;;;;;;;;;;;;;;20.34;66.40;97928.09;1671636;84;21990;-87
2021/07/07 00:30:49;;;;;;;;;;;;;;;20.24;66.50;97925.31;1683319;84;26139;-87
2021/07/07 00:33:16;;;;;;;;;;;;;;;20.16;66.55;97926.23;1635116;87;24518;-87
2021/07/07 00:35:42;;;;;;;;;;;;;;;20.15;66.59;97928.55;1665684;84;20243;-87
2021/07/07 00:38:08;;;;;;;;;;;;;;;20.17;66.67;97926.55;1693094;83;24735;-87
2021/07/07 00:40:37;;;;;;;;;;;;;;;20.22;66.70;97923.35;1639583;85;20230;-87
2021/07/07 00:43:03;;;;;;;;;;;;;;;20.24;66.76;97923.48;1644768;85;26173;-87
2021/07/07 00:45:29;;;;;;;;;;;;;;;20.19;66.76;97925.03;1698776;84;24381;-87
2021/07/07 00:47:55;;;;;;;;;;;;;;;20.13;66.82;97934.54;1703262;84;20297;-88
2021/07/07 00:50:23;;;;;;;;;;;;;;;20.08;66.88;97938.23;1695627;83;20346;-87
2021/07/07 00:52:49;;;;;;;;;;;;;;;20.07;66.94;97935.28;1681589;84;22035;-87
2021/07/07 00:55:16;;;;;;;;;;;;;;;19.97;67.01;97924.05;1682684;84;26028;-87
2021/07/07 00:57:46;;;;;;;;;;;;;;;19.95;67.05;97924.75;1651718;85;24458;-87
2021/07/07 01:00:14;;;;;;;;;;;;;;;20.07;67.09;97922.50;1689700;83;20540;-87
2021/07/07 01:02:42;;;;;;;;;;;;;;;20.09;67.14;97922.63;1685215;83;25390;-87
2021/07/07 01:05:10;;;;;;;;;;;;;;;20.01;67.11;97922.71;1678803;84;22020;-87
2021/07/07 01:07:40;;;;;;;;;;;;;;;19.98;67.15;97921.72;1689814;82;25294;-87
2021/07/07 01:10:05;;;;;;;;;;;;;;;20.02;67.20;97915.04;1681626;84;24515;-87
2021/07/07 01:12:32;;;;;;;;;;;;;;;20.12;67.20;97920.95;1677893;84;20340;-89
2021/07/07 01:15:03;;;;;;;;;;;;;;;20.25;67.17;97913.17;1665891;84;24791;-88
2021/07/07 01:17:32;;;;;;;;;;;;;;;20.29;67.12;97914.46;1666835;84;22145;-87
2021/07/07 01:19:58;;;;;;;;;;;;;;;20.24;67.09;97915.51;1689475;84;26018;-88
2021/07/07 01:22:29;;;;;;;;;;;;;;;20.16;67.07;97922.74;1673781;84;20397;-87
2021/07/07 01:25:01;;;;;;;;;;;;;;;20.11;67.04;97925.11;1673542;83;20162;-87
2021/07/07 01:27:31;;;;;;;;;;;;;;;20.17;67.01;97918.58;1689122;83;24851;-87
2021/07/07 01:29:58;;;;;;;;;;;;;;;20.28;66.98;97919.48;1681004;84;22021;-87
2021/07/07 01:32:24;;;;;;;;;;;;;;;20.35;66.94;97917.76;1633924;86;25974;-87
2021/07/07 01:34:53;;;;;;;;;;;;;;;20.41;66.89;97920.20;1663082;84;20315;-88
2021/07/07 01:37:18;;;;;;;;;;;;;;;20.34;66.83;97918.79;1682791;84;20662;-87
2021/07/07 01:39:45;;;;;;;;;;;;;;;20.23;66.81;97918.37;1665954;84;20240;-88
2021/07/07 01:42:10;;;;;;;;;;;;;;;20.08;66.80;97914.83;1678971;84;22073;-88
2021/07/07 01:44:37;;;;;;;;;;;;;;;20.06;66.81;97915.03;1659883;84;26039;-88
2021/07/07 01:47:08;;;;;;;;;;;;;;;20.16;66.82;97918.26;1672899;84;24412;-87
2021/07/07 01:49:37;;;;;;;;;;;;;;;20.20;66.79;97918.21;1657033;84;20528;-88
2021/07/07 01:52:03;;;;;;;;;;;;;;;20.26;66.75;97915.34;1682736;82;24962;-87
2021/07/07 01:54:34;;;;;;;;;;;;;;;20.26;66.70;97916.66;1682468;83;22688;-87
2021/07/07 01:57:03;;;;;;;;;;;;;;;20.24;66.66;97919.50;1684220;85;26016;-86
2021/07/07 01:59:33;;;;;;;;;;;;;;;20.23;66.59;97919.20;1660133;85;24611;-86
2021/07/07 02:01:57;;;;;;;;;;;;;;;20.19;66.54;97924.53;1714098;81;20314;-86
2021/07/07 02:04:27;;;;;;;;;;;;;;;20.00;66.51;97923.71;1652890;86;24786;-87
2021/07/07 02:06:54;;;;;;;;;;;;;;;19.79;66.48;97919.56;1646494;86;21977;-87
2021/07/07 02:09:20;;;;;;;;;;;;;;;19.70;66.55;97925.92;1644065;87;26757;-87
2021/07/07 02:11:52;;;;;;;;;;;;;;;19.58;66.61;97926.86;1651402;86;25371;-87
2021/07/07 02:14:19;;;;;;;;;;;;;;;19.59;66.69;97927.98;1647543;86;20205;-87
2021/07/07 02:16:45;;;;;;;;;;;;;;;19.59;66.82;97928.48;1659966;85;24725;-87
2021/07/07 02:19:11;;;;;;;;;;;;;;;19.51;66.86;97927.23;1645626;86;20285;-87
2021/07/07 02:21:49;;;;;;;;;;;;;;;19.51;66.92;97929.38;1648499;86;26062;-88
2021/07/07 02:24:15;;;;;;;;;;;;;;;19.47;66.99;97930.74;1656931;86;24393;-88
2021/07/07 02:26:43;;;;;;;;;;;;;;;19.40;67.05;97931.58;1657692;86;20338;-88
2021/07/07 02:29:09;;;;;;;;;;;;;;;19.37;67.10;97928.75;1650054;86;24841;-88
2021/07/07 02:31:35;;;;;;;;;;;;;;;19.47;67.16;97936.05;1648515;86;21931;-88
2021/07/07 02:34:04;;;;;;;;;;;;;;;19.54;67.18;97941.46;1641942;87;26168;-88
2021/07/07 02:36:30;;;;;;;;;;;;;;;19.62;67.19;97942.75;1651638;86;24528;-87
2021/07/07 02:38:58;;;;;;;;;;;;;;;19.68;67.15;97943.87;1667958;85;20203;-87
2021/07/07 02:41:24;;;;;;;;;;;;;;;19.73;67.11;97937.53;1629350;86;24803;-87
2021/07/07 02:43:50;;;;;;;;;;;;;;;19.75;67.06;97942.98;1629417;86;20276;-87
2021/07/07 02:46:16;;;;;;;;;;;;;;;19.76;67.03;97945.96;1654080;86;26030;-87
2021/07/07 02:48:42;;;;;;;;;;;;;;;19.75;67.00;97948.78;1648040;86;20377;-87
2021/07/07 02:51:08;;;;;;;;;;;;;;;19.73;66.97;97948.98;1662109;85;20251;-87
2021/07/07 02:53:34;;;;;;;;;;;;;;;19.69;66.95;97950.34;1647053;86;20295;-88
2021/07/07 02:56:03;;;;;;;;;;;;;;;19.60;66.93;97954.86;1652226;86;20197;-87
2021/07/07 02:58:29;;;;;;;;;;;;;;;19.47;66.93;97957.28;1659246;86;26049;-87
2021/07/07 03:00:55;;;;;;;;;;;;;;;19.38;66.93;97962.26;1660081;86;24425;-87
2021/07/07 03:03:27;;;;;;;;;;;;;;;19.23;66.96;97962.17;1653576;85;20246;-87
2021/07/07 03:05:52;;;;;;;;;;;;;;;19.16;67.02;97958.55;1659125;84;24789;-87
2021/07/07 03:08:19;;;;;;;;;;;;;;;19.15;67.11;97960.03;1638928;85;21465;-84
2021/07/07 03:10:45;;;;;;;;;;;;;;;19.07;67.21;97964.07;1675903;85;26081;-84
2021/07/07 03:13:14;;;;;;;;;;;;;;;19.06;67.31;97963.73;1681556;84;25398;-83
2021/07/07 03:15:40;;;;;;;;;;;;;;;19.13;67.37;97962.06;1643585;85;20344;-84
2021/07/07 03:18:07;;;;;;;;;;;;;;;19.12;67.47;97971.01;1660063;85;24779;-84
2021/07/07 03:20:34;;;;;;;;;;;;;;;19.12;67.57;97968.36;1676322;84;21933;-84
2021/07/07 03:23:00;;;;;;;;;;;;;;;19.10;67.66;97970.34;1684275;82;26079;-84
2021/07/07 03:25:26;;;;;;;;;;;;;;;19.15;67.77;97974.63;1678147;82;24787;-84
2021/07/07 03:27:54;;;;;;;;;;;;;;;19.19;67.85;97977.29;1677574;84;20250;-84
2021/07/07 03:30:20;;;;;;;;;;;;;;;19.19;67.95;97983.92;1676542;82;24226;-84
2021/07/07 03:32:49;;;;;;;;;;;;;;;19.25;68.05;97979.75;1675898;84;22133;-84
2021/07/07 03:35:15;;;;;;;;;;;;;;;19.36;68.15;97988.16;1668646;84;25962;-84
2021/07/07 03:37:41;;;;;;;;;;;;;;;19.46;68.22;97987.47;1650035;85;24421;-84
2021/07/07 03:40:08;;;;;;;;;;;;;;;19.49;68.29;97990.27;1677143;84;20236;-84
2021/07/07 03:42:34;;;;;;;;;;;;;;;19.60;68.41;97985.39;1676878;85;24778;-84
2021/07/07 03:45:00;;;;;;;;;;;;;;;19.64;68.46;97984.53;1678702;84;20296;-84
2021/07/07 03:47:26;;;;;;;;;;;;;;;19.71;68.51;97984.17;1678827;83;26072;-84
2021/07/07 03:49:52;;;;;;;;;;;;;;;19.78;68.56;97987.78;1653089;85;24592;-84
2021/07/07 03:52:18;;;;;;;;;;;;;;;19.86;68.59;97985.05;1644459;84;20254;-84
2021/07/07 03:54:44;;;;;;;;;;;;;;;19.97;68.61;97981.98;1678894;85;24827;-85
2021/07/07 03:57:10;;;;;;;;;;;;;;;20.13;68.65;97980.23;1681450;84;21896;-84
2021/07/07 03:59:37;;;;;;;;;;;;;;;20.37;68.68;97984.86;1657556;84;25964;-83
2021/07/07 04:02:03;;;;;;;;;;;;;;;20.50;68.67;97987.42;1657258;84;24528;-84
2021/07/07 04:04:29;;;;;;;;;;;;;;;20.64;68.67;97985.27;1662486;84;20207;-84
2021/07/07 04:06:58;;;;;;;;;;;;;;;20.72;68.63;97986.03;1657699;86;24746;-85
2021/07/07 04:09:29;;;;;;;;;;;;;;;20.88;68.62;97992.52;1647817;85;37658;-86
2021/07/07 04:11:57;;;;;;;;;;;;;;;21.11;68.57;97996.92;1658679;86;26771;-85
2021/07/07 04:14:25;;;;;;;;;;;;;;;21.34;68.50;97995.48;1651814;86;24558;-85
2021/07/07 04:16:51;;;;;;;;;;;;;;;21.46;68.40;97996.67;1624483;87;20242;-84
2021/07/07 04:19:18;;;;;;;;;;;;;;;21.50;68.29;98000.60;1663723;85;24932;-84
2021/07/07 04:21:44;;;;;;;;;;;;;;;21.50;68.19;97997.44;1653332;85;21959;-84
2021/07/07 04:24:10;;;;;;;;;;;;;;;21.50;67.99;98000.60;1660912;85;25966;-87
2021/07/07 04:26:36;;;;;;;;;;;;;;;21.48;67.77;98005.31;1647569;85;24316;-87
2021/07/07 04:29:02;;;;;;;;;;;;;;;21.50;67.61;98003.27;1656153;85;20314;-87
2021/07/07 04:31:30;;;;;;;;;;;;;;;21.49;67.47;98000.31;1647911;85;20486;-87
2021/07/07 04:34:03;;;;;;;;;;;;;;;21.51;67.40;98000.92;1630651;87;22095;-88
2021/07/07 04:36:30;;;;;;;;;;;;;;;21.53;67.36;98000.25;1660482;85;26155;-88
2021/07/07 04:38:56;;;;;;;;;;;;;;;21.56;67.35;98000.69;1659968;85;24432;-87
2021/07/07 04:41:22;;;;;;;;;;;;;;;21.62;67.30;98004.44;1648682;86;20227;-87
2021/07/07 04:43:48;;;;;;;;;;;;;;;21.69;67.29;98004.02;1631167;87;24734;-87
2021/07/07 04:46:14;;;;;;;;;;;;;;;21.78;67.26;98008.72;1655136;85;21956;-87
2021/07/07 04:48:40;;;;;;;;;;;;;;;21.85;67.20;98006.45;1658512;85;26093;-88
2021/07/07 04:51:06;;;;;;;;;;;;;;;21.93;67.16;98008.98;1627230;87;24396;-87
2021/07/07 04:53:32;;;;;;;;;;;;;;;22.01;67.10;98012.91;1631589;87;20262;-87
2021/07/07 04:56:01;;;;;;;;;;;;;;;22.10;67.08;98007.76;1658968;85;20272;-88
2021/07/07 04:58:32;;;;;;;;;;;;;;;22.19;67.06;98006.31;1665407;85;22067;-88
2021/07/07 05:00:59;;;;;;;;;;;;;;;22.27;67.00;98002.17;1651068;86;26032;-88
2021/07/07 05:03:25;;;;;;;;;;;;;;;22.37;66.95;98001.33;1658310;85;24518;-88
2021/07/07 05:05:54;;;;;;;;;;;;;;;22.45;66.90;98004.70;1661077;86;20284;-88
2021/07/07 05:08:20;;;;;;;;;;;;;;;22.48;66.87;98006.97;1622473;87;24677;-88
2021/07/07 05:10:46;;;;;;;;;;;;;;;22.51;66.81;98008.44;1659284;84;20305;-88
2021/07/07 05:13:13;;;;;;;;;;;;;;;22.58;66.81;98012.50;1673504;84;25938;-88
2021/07/07 05:15:39;;;;;;;;;;;;;;;22.64;66.82;98011.20;1672641;84;24391;-88
2021/07/07 05:18:08;;;;;;;;;;;;;;;22.69;66.81;98013.31;1661446;85;20247;-88
2021/07/07 05:20:34;;;;;;;;;;;;;;;22.71;66.84;98007.25;1676135;84;24714;-88
2021/07/07 05:23:06;;;;;;;;;;;;;;;22.78;66.88;98016.17;1669447;84;21918;-86
2021/07/07 05:25:28;;;;;;;;;;;;;;;22.81;66.92;98004.59;1683320;83;26116;-85
2021/07/07 05:27:54;;;;;;;;;;;;;;;22.89;66.99;98004.45;1678496;84;24697;-85
2021/07/07 05:30:24;;;;;;;;;;;;;;;22.97;67.03;98011.46;1671918;83;20291;-85
2021/07/07 05:32:49;;;;;;;;;;;;;;;23.07;67.05;98011.96;1648599;83;25446;-85
2021/07/07 05:35:15;;;;;;;;;;;;;;;23.10;67.04;98010.22;1640657;86;21996;-85
2021/07/07 05:37:41;;;;;;;;;;;;;;;23.15;67.06;98009.11;1687498;83;26185;-86
2021/07/07 05:40:18;;;;;;;;;;;;;;;23.20;67.10;98008.52;1684483;84;24427;-86
2021/07/07 05:42:49;;;;;;;;;;;;;;;23.24;67.16;98007.92;1669349;85;20584;-85
2021/07/07 05:45:12;;;;;;;;;;;;;;;23.33;67.22;98015.27;1692801;84;24798;-85
2021/07/07 05:47:38;;;;;;;;;;;;;;;23.42;67.27;98012.73;1692524;84;20839;-85
2021/07/07 05:50:06;;;;;;;;;;;;;;;23.54;67.17;98015.70;1687563;84;26748;-85
2021/07/07 05:52:32;;;;;;;;;;;;;;;23.59;66.78;98015.42;1680579;83;24465;-85
2021/07/07 05:54:58;;;;;;;;;;;;;;;23.70;66.40;98014.84;1679770;84;20446;-85
2021/07/07 05:57:25;;;;;;;;;;;;;;;23.83;65.95;98019.42;1676021;84;20255;-85
2021/07/07 05:59:51;;;;;;;;;;;;;;;23.96;65.53;98029.30;1688255;83;22012;-85
2021/07/07 06:02:17;;;;;;;;;;;;;;;24.07;65.09;98030.88;1694659;83;25978;-85
2021/07/07 06:04:43;;;;;;;;;;;;;;;24.17;64.63;98030.48;1669258;83;24476;-85
2021/07/07 06:07:09;;;;;;;;;;;;;;;24.28;64.26;98031.25;1673560;85;20259;-86
2021/07/07 06:09:35;;;;;;;;;;;;;;;24.38;63.88;98030.36;1674795;85;20341;-85
2021/07/07 06:12:05;;;;;;;;;;;;;;;24.47;63.52;98034.47;1672991;85;20287;-85
2021/07/07 06:14:35;;;;;;;;;;;;;;;24.55;63.20;98034.77;1670960;85;26022;-86
2021/07/07 06:17:02;;;;;;;;;;;;;;;24.63;62.80;98034.58;1635712;87;25180;-88
2021/07/07 06:19:28;;;;;;;;;;;;;;;24.71;62.42;98034.90;1659367;85;20286;-88
2021/07/07 06:21:57;;;;;;;;;;;;;;;24.76;62.04;98037.27;1658455;85;20239;-88
2021/07/07 06:24:23;;;;;;;;;;;;;;;24.83;61.66;98041.25;1662533;84;22708;-89
2021/07/07 06:26:55;;;;;;;;;;;;;;;24.91;61.31;98045.10;1661592;85;26009;-91
2021/07/07 06:29:21;;;;;;;;;;;;;;;25.00;61.02;98043.33;1669322;85;25222;-88
2021/07/07 06:31:47;;;;;;;;;;;;;;;25.07;60.70;98042.50;1659047;85;20197;-88
2021/07/07 06:34:13;;;;;;;;;;;;;;;25.15;60.37;98044.43;1671301;85;25579;-88
2021/07/07 06:36:39;;;;;;;;;;;;;;;25.22;60.11;98043.09;1665838;85;22097;-88
2021/07/07 06:39:06;;;;;;;;;;;;;;;25.27;59.89;98049.97;1666732;85;20985;-88
2021/07/07 06:41:32;;;;;;;;;;;;;;;25.35;59.63;98043.06;1662371;85;24660;-88
2021/07/07 06:43:58;;;;;;;;;;;;;;;25.41;59.36;98047.07;1657893;85;20325;-88
2021/07/07 06:46:25;;;;;;;;;;;;;;;25.52;59.13;98047.45;1651562;85;24732;-88
2021/07/07 06:48:51;;;;;;;;;;;;;;;25.60;59.00;98048.56;1661340;86;22766;-88
2021/07/07 06:51:17;;;;;;;;;;;;;;;25.68;58.83;98045.16;1662065;85;25948;-88
2021/07/07 06:53:43;;;;;;;;;;;;;;;25.78;58.62;98044.17;1654637;86;24546;-88
2021/07/07 06:56:09;;;;;;;;;;;;;;;25.86;58.38;98047.11;1662296;86;20382;-88
2021/07/07 06:58:35;;;;;;;;;;;;;;;25.91;58.06;98046.50;1660540;85;24768;-88
2021/07/07 07:01:01;;;;;;;;;;;;;;;25.98;57.91;98051.28;1659129;86;21952;-88
2021/07/07 07:03:27;;;;;;;;;;;;;;;26.03;57.66;98050.95;1657345;82;20959;-87
2021/07/07 07:06:05;;;;;;;;;;;;;;;26.12;57.32;98048.86;1681595;84;20313;-88
2021/07/07 07:08:32;;;;;;;;;;;;;;;26.20;57.04;98044.56;1682173;84;20232;-88
2021/07/07 07:10:58;;;;;;;;;;;;;;;26.27;56.75;98045.90;1678597;84;24586;-88
2021/07/07 07:13:24;;;;;;;;;;;;;;;26.36;56.57;98045.93;1666702;84;22078;-88
2021/07/07 07:15:50;;;;;;;;;;;;;;;26.46;56.33;98048.95;1679801;84;21981;-88
2021/07/07 07:18:17;;;;;;;;;;;;;;;26.56;56.11;98039.92;1651539;85;20305;-88
2021/07/07 07:20:43;;;;;;;;;;;;;;;26.64;55.77;98045.00;1680006;84;20669;-88
2021/07/07 07:23:10;;;;;;;;;;;;;;;26.73;55.39;98042.89;1682939;84;24762;-90
2021/07/07 07:25:36;;;;;;;;;;;;;;;26.81;55.12;98039.39;1676742;84;21942;-88
2021/07/07 07:28:02;;;;;;;;;;;;;;;26.91;54.89;98037.05;1671776;84;25933;-88
2021/07/07 07:30:30;;;;;;;;;;;;;;;27.00;54.73;98035.72;1637231;85;24557;-88
2021/07/07 07:32:57;;;;;;;;;;;;;;;27.10;54.47;98043.30;1667413;84;20245;-88
2021/07/07 07:35:23;;;;;;;;;;;;;;;27.22;54.21;98038.81;1682285;84;24833;-87
2021/07/07 07:38:00;;;;;;;;;;;;;;;27.30;53.93;98039.05;1684322;84;22080;-88
2021/07/07 07:40:23;;;;;;;;;;;;;;;27.39;53.67;98047.11;1657582;85;26199;-87
2021/07/07 07:42:49;;;;;;;;;;;;;;;27.46;53.40;98050.55;1713211;82;24624;-88
2021/07/07 07:45:19;;;;;;;;;;;;;;;27.53;53.28;98050.00;1723872;82;20301;-85
2021/07/07 07:47:43;;;;;;;;;;;;;;;27.61;53.12;98048.85;1723091;80;24769;-85
2021/07/07 07:50:11;;;;;;;;;;;;;;;27.71;52.86;98053.20;1686094;84;22043;-84
2021/07/07 07:52:38;;;;;;;;;;;;;;;27.79;52.67;98059.09;1655195;85;26609;-84
2021/07/07 07:55:05;;;;;;;;;;;;;;;27.85;52.43;98048.77;1652978;85;24634;-85
2021/07/07 07:57:36;;;;;;;;;;;;;;;27.89;52.19;98048.61;1669331;84;20139;-85
2021/07/07 07:59:59;;;;;;;;;;;;;;;27.93;51.91;98053.00;1688858;84;24785;-85
2021/07/07 08:02:25;;;;;;;;;;;;;;;27.97;51.71;98054.21;1669391;85;20306;-85
2021/07/07 08:04:52;;;;;;;;;;;;;;;28.03;51.53;98053.83;1637440;85;26621;-85
2021/07/07 08:07:18;;;;;;;;;;;;;;;28.09;51.40;98062.34;1673345;85;25320;-85
2021/07/07 08:09:46;;;;;;;;;;;;;;;28.18;51.37;98058.30;1653168;84;20198;-85
2021/07/07 08:12:12;;;;;;;;;;;;;;;28.27;51.30;98067.68;1683986;84;24948;-85
2021/07/07 08:14:38;;;;;;;;;;;;;;;28.34;51.13;98067.08;1677787;84;20305;-85
2021/07/07 08:17:07;;;;;;;;;;;;;;;28.40;50.82;98068.02;1674292;84;22060;-84
2021/07/07 08:19:33;;;;;;;;;;;;;;;28.45;50.63;98067.63;1684721;84;24597;-85
2021/07/07 08:21:59;;;;;;;;;;;;;;;28.52;50.46;98074.27;1677533;84;20295;-85
2021/07/07 08:24:25;;;;;;;;;;;;;;;28.57;50.17;98075.22;1689339;84;24476;-85
2021/07/07 08:26:54;;;;;;;;;;;;;;;28.60;50.02;98076.09;1681548;82;20378;-85
2021/07/07 08:29:19;;;;;;;;;;;;;;;28.67;49.90;98069.27;1668794;85;26916;-85
2021/07/07 08:31:51;;;;;;;;;;;;;;;28.73;49.71;98071.59;1694007;84;20402;-88
2021/07/07 08:34:22;;;;;;;;;;;;;;;28.77;49.48;98070.06;1640884;85;20239;-88
2021/07/07 08:36:48;;;;;;;;;;;;;;;28.87;49.33;98066.27;1634047;86;24815;-88
2021/07/07 08:39:24;;;;;;;;;;;;;;;28.95;48.99;98068.63;1652248;85;22010;-88
2021/07/07 08:41:51;;;;;;;;;;;;;;;29.01;48.75;98067.70;1676797;82;26804;-87
2021/07/07 08:44:17;;;;;;;;;;;;;;;29.07;48.66;98070.29;1682538;84;24663;-88
2021/07/07 08:46:49;;;;;;;;;;;;;;;29.17;48.56;98072.39;1687079;83;20178;-88
2021/07/07 08:49:19;;;;;;;;;;;;;;;29.22;48.24;98071.69;1683842;85;25445;-88
2021/07/07 08:51:57;;;;;;;;;;;;;;;29.29;48.21;98078.61;1684697;85;22121;-88
2021/07/07 08:54:23;;;;;;;;;;;;;;;29.36;48.08;98064.48;1685848;85;26071;-88
2021/07/07 08:56:49;;;;;;;;;;;;;;;29.45;48.02;98069.83;1685357;83;24422;-89
2021/07/07 08:59:19;;;;;;;;;;;;;;;29.47;47.72;98069.05;1674692;84;20152;-88
2021/07/07 09:02:02;;;;;;;;;;;;;;;29.52;47.63;98073.20;1685263;84;24825;-88
2021/07/07 09:04:30;;;;;;;;;;;;;;;29.60;47.43;98063.94;1700989;83;22100;-88
2021/07/07 09:06:57;;;;;;;;;;;;;;;29.64;47.14;98071.02;1691910;83;26072;-88
2021/07/07 09:09:39;;;;;;;;;;;;;;;29.70;47.05;98074.11;1688239;83;24427;-88
2021/07/07 09:12:18;;;;;;;;;;;;;;;29.67;46.92;98074.59;1687953;83;20228;-87
2021/07/07 09:14:51;;;;;;;;;;;;;;;29.70;46.71;98078.16;1686771;83;24795;-88
2021/07/07 09:17:26;;;;;;;;;;;;;;;29.79;46.55;98083.46;1684151;83;22212;-87
2021/07/07 09:19:52;;;;;;;;;;;;;;;29.85;46.27;98082.52;1687122;83;26112;-88
2021/07/07 09:22:32;;;;;;;;;;;;;;;29.84;45.96;98080.34;1678042;84;25256;-88
2021/07/07 09:25:04;;;;;;;;;;;;;;;29.87;45.77;98081.23;1655856;85;20218;-88
2021/07/07 09:27:34;;;;;;;;;;;;;;;29.96;45.77;98080.87;1651170;85;25570;-87
2021/07/07 09:30:02;;;;;;;;;;;;;;;30.06;45.76;98089.98;1684311;83;22158;-88
2021/07/07 09:32:29;;;;;;;;;;;;;;;30.12;45.60;98086.86;1667270;85;26165;-88
2021/07/07 09:34:59;;;;;;;;;;;;;;;30.17;45.36;98092.35;1689937;83;24503;-88
2021/07/07 09:37:27;;;;;;;;;;;;;;;30.21;45.13;98083.55;1684769;83;20241;-88
2021/07/07 09:39:55;;;;;;;;;;;;;;;30.28;44.91;98083.38;1680946;84;24773;-88
2021/07/07 09:42:26;;;;;;;;;;;;;;;30.37;44.73;98090.59;1689109;83;22059;-88
2021/07/07 09:44:54;;;;;;;;;;;;;;;30.40;44.53;98084.69;1666482;84;26479;-88
2021/07/07 09:47:27;;;;;;;;;;;;;;;30.44;44.15;98085.86;1730714;82;24614;-88
2021/07/07 09:49:56;;;;;;;;;;;;;;;30.50;43.97;98091.12;1724223;82;20169;-88
2021/07/07 09:52:25;;;;;;;;;;;;;;;30.58;43.84;98094.79;1666727;85;24928;-87
2021/07/07 09:54:55;;;;;;;;;;;;;;;30.63;43.62;98093.53;1689364;83;22831;-87
2021/07/07 09:57:23;;;;;;;;;;;;;;;30.66;43.37;98094.91;1670859;85;26030;-87
2021/07/07 09:59:50;;;;;;;;;;;;;;;30.71;43.25;98098.52;1726638;82;24456;-88
2021/07/07 10:02:18;;;;;;;;;;;;;;;30.73;43.06;98088.82;1727720;82;20210;-88
2021/07/07 10:04:45;;;;;;;;;;;;;;;30.76;42.88;98095.11;1723176;81;24845;-87
2021/07/07 10:07:15;;;;;;;;;;;;;;;30.80;42.89;98096.25;1674726;85;22015;-88
2021/07/07 10:09:44;;;;;;;;;;;;;;;30.85;42.62;98094.16;1675094;85;26735;-88
2021/07/07 10:12:10;;;;;;;;;;;;;;;30.95;42.69;98098.38;1644033;85;24696;-88
2021/07/07 10:14:48;;;;;;;;;;;;;;;30.99;42.44;98098.16;1640372;87;20202;-88
2021/07/07 10:17:15;;;;;;;;;;;;;;;31.04;42.23;98092.89;1644661;87;24984;-87
2021/07/07 10:19:42;;;;;;;;;;;;;;;31.14;42.21;98087.11;1641368;87;22895;-87
2021/07/07 10:22:08;;;;;;;;;;;;;;;31.23;41.93;98098.31;1636449;86;25976;-88
2021/07/07 10:24:35;;;;;;;;;;;;;;;31.24;41.54;98085.61;1636780;87;24485;-88
2021/07/07 10:27:02;;;;;;;;;;;;;;;31.18;41.31;98086.60;1642505;87;20645;-87
2021/07/07 10:29:29;;;;;;;;;;;;;;;31.14;41.26;98087.64;1610429;89;24243;-88
2021/07/07 10:31:57;;;;;;;;;;;;;;;31.11;41.15;98084.06;1642587;87;22077;-87
2021/07/07 10:34:25;;;;;;;;;;;;;;;31.11;40.96;98091.64;1643794;87;25963;-87
2021/07/07 10:36:52;;;;;;;;;;;;;;;31.26;41.06;98086.20;1641220;87;24581;-88
2021/07/07 10:39:18;;;;;;;;;;;;;;;31.45;41.11;98087.54;1643283;87;20303;-87
2021/07/07 10:41:46;;;;;;;;;;;;;;;31.63;41.10;98094.59;1644609;85;24764;-88
2021/07/07 10:44:13;;;;;;;;;;;;;;;31.71;41.02;98096.84;1610917;89;22028;-88
2021/07/07 10:47:05;;;;;;;;;;;;;;;31.70;40.97;98100.08;1642153;87;26082;-88
2021/07/07 10:49:32;;;;;;;;;;;;;;;31.74;41.01;98090.41;1636352;86;24533;-88
2021/07/07 10:51:59;;;;;;;;;;;;;;;31.82;40.92;98087.25;1643137;85;20324;-88
2021/07/07 10:54:32;;;;;;;;;;;;;;;31.90;41.00;98085.47;1642489;87;25032;-88
2021/07/07 10:56:59;;;;;;;;;;;;;;;31.89;40.89;98087.08;1658417;85;22219;-88
2021/07/07 10:59:29;;;;;;;;;;;;;;;31.81;40.68;98086.97;1664429;85;26061;-88
2021/07/07 11:02:07;;;;;;;;;;;;;;;31.86;40.72;98092.44;1673832;84;24455;-89
2021/07/07 11:04:41;;;;;;;;;;;;;;;31.89;40.68;98093.30;1623194;85;20345;-88
2021/07/07 11:07:28;;;;;;;;;;;;;;;31.86;40.58;98088.37;1654935;85;24784;-88
2021/07/07 11:09:55;;;;;;;;;;;;;;;31.77;40.34;98093.96;1645735;85;22165;-87
2021/07/07 11:12:22;;;;;;;;;;;;;;;31.71;40.25;98086.84;1644253;86;25971;-89
2021/07/07 11:15:02;;;;;;;;;;;;;;;31.75;40.28;98081.20;1622271;86;24724;-89
2021/07/07 11:17:34;;;;;;;;;;;;;;;31.85;40.32;98078.65;1646065;86;20318;-89
2021/07/07 11:20:05;;;;;;;;;;;;;;;31.88;40.25;98074.07;1648157;86;24469;-85
2021/07/07 11:22:33;;;;;;;;;;;;;;;31.89;40.08;98073.00;1652722;85;22621;-88
2021/07/07 11:25:04;;;;;;;;;;;;;;;31.84;39.98;98078.89;1627253;87;26655;-88
2021/07/07 11:27:28;;;;;;;;;;;;;;;31.77;39.95;98080.42;1649547;86;24462;-88
2021/07/07 11:29:54;;;;;;;;;;;;;;;31.70;39.89;98089.26;1634835;86;20707;-88
2021/07/07 11:32:22;;;;;;;;;;;;;;;31.64;39.76;98088.91;1623072;87;20351;-88
2021/07/07 11:34:50;;;;;;;;;;;;;;;31.67;39.80;98092.48;1663598;85;20581;-89
2021/07/07 11:37:16;;;;;;;;;;;;;;;31.84;40.07;98085.12;1697071;83;25999;-88
2021/07/07 11:39:42;;;;;;;;;;;;;;;31.95;39.88;98088.24;1694696;83;20272;-89
2021/07/07 11:42:09;;;;;;;;;;;;;;;31.97;39.70;98088.78;1690504;84;20276;-89
2021/07/07 11:44:42;;;;;;;;;;;;;;;31.96;39.63;98090.41;1652055;86;24774;-89
2021/07/07 11:47:09;;;;;;;;;;;;;;;31.95;39.61;98091.48;1646725;86;22050;-86
2021/07/07 11:49:36;;;;;;;;;;;;;;;31.97;39.75;98086.61;1653667;86;26060;-86
2021/07/07 11:52:04;;;;;;;;;;;;;;;31.96;39.76;98088.53;1661460;85;24493;-86
2021/07/07 11:54:32;;;;;;;;;;;;;;;31.94;39.79;98088.48;1633464;86;20302;-86
2021/07/07 11:56:58;;;;;;;;;;;;;;;31.94;39.76;98092.02;1627903;87;24933;-89
2021/07/07 11:59:24;;;;;;;;;;;;;;;31.92;39.79;98090.08;1655407;85;22081;-89
2021/07/07 12:01:59;;;;;;;;;;;;;;;31.92;40.08;98092.79;1627627;87;21150;-88
2021/07/07 12:04:30;;;;;;;;;;;;;;;32.06;40.16;98092.42;1633309;87;24448;-89
2021/07/07 12:06:58;;;;;;;;;;;;;;;32.21;40.09;98096.67;1660133;83;20159;-89
2021/07/07 12:09:27;;;;;;;;;;;;;;;32.28;39.90;98100.84;1683805;84;24845;-92
2021/07/07 12:11:54;;;;;;;;;;;;;;;32.25;39.78;98095.91;1682682;84;22206;-88
2021/07/07 12:14:23;;;;;;;;;;;;;;;32.30;39.90;98101.91;1665557;84;25906;-89
2021/07/07 12:16:49;;;;;;;;;;;;;;;32.34;40.00;98101.17;1679326;84;24510;-88
2021/07/07 12:19:16;;;;;;;;;;;;;;;32.22;39.68;98104.55;1675019;85;20352;-89
2021/07/07 12:21:47;;;;;;;;;;;;;;;32.22;39.50;98102.38;1691482;84;25485;-89
2021/07/07 12:24:30;;;;;;;;;;;;;;;32.14;39.40;98105.52;1673208;85;22255;-89
2021/07/07 12:26:58;;;;;;;;;;;;;;;32.13;39.71;98107.97;1669363;84;25962;-89
2021/07/07 12:29:25;;;;;;;;;;;;;;;32.09;39.99;98106.79;1670081;84;24259;-89
2021/07/07 12:31:53;;;;;;;;;;;;;;;32.01;40.16;98108.61;1642656;85;20356;-86
2021/07/07 12:34:21;;;;;;;;;;;;;;;32.03;40.51;98101.84;1685415;84;24904;-86
2021/07/07 12:36:49;;;;;;;;;;;;;;;32.05;41.02;98111.08;1646053;85;22598;-86
2021/07/07 12:39:19;;;;;;;;;;;;;;;32.02;41.21;98109.72;1676725;84;26051;-86
2021/07/07 12:41:51;;;;;;;;;;;;;;;31.99;41.62;98111.02;1680639;84;24521;-86
2021/07/07 12:44:28;;;;;;;;;;;;;;;31.95;41.91;98110.44;1678719;83;20454;-87
2021/07/07 12:47:11;;;;;;;;;;;;;;;31.86;42.24;98114.09;1679691;84;24855;-86
2021/07/07 12:49:45;;;;;;;;;;;;;;;31.78;42.61;98113.73;1683069;84;21966;-87
2021/07/07 12:52:31;;;;;;;;;;;;;;;31.81;42.92;98111.33;1645665;84;26273;-87